sensor_id;sensor_type;location;lat;lon;timestamp;P1;durP1;ratioP1;P2;durP2;ratioP2
79212;SDS011;68639;52.380;9.822;2023-05-24T00:00:15;25.50;;;5.37;;
79212;SDS011;68639;52.380;9.822;2023-05-24T00:02:41;21.73;;;4.30;;
79212;SDS011;68639;52.380;9.822;2023-05-24T00:05:09;27.77;;;4.50;;
79212;SDS011;68639;52.380;9.822;2023-05-24T00:07:37;25.67;;;4.23;;
79212;SDS011;68639;52.380;9.822;2023-05-24T00:10:03;34.40;;;5.93;;
79212;SDS011;68639;52.380;9.822;2023-05-24T00:12:28;25.20;;;4.67;;
79212;SDS011;68639;52.380;9.822;2023-05-24T00:14:54;30.87;;;5.00;;
79212;SDS011;68639;52.380;9.822;2023-05-24T00:17:19;29.93;;;5.47;;
79212;SDS011;68639;52.380;9.822;2023-05-24T00:19:44;25.00;;;5.00;;
79212;SDS011;68639;52.380;9.822;2023-05-24T00:22:09;23.37;;;5.10;;
79212;SDS011;68639;52.380;9.822;2023-05-24T00:24:35;29.80;;;4.87;;
79212;SDS011;68639;52.380;9.822;2023-05-24T00:27:01;26.60;;;5.33;;
79212;SDS011;68639;52.380;9.822;2023-05-24T00:29:26;27.17;;;5.07;;
79212;SDS011;68639;52.380;9.822;2023-05-24T00:31:51;26.17;;;4.30;;
79212;SDS011;68639;52.380;9.822;2023-05-24T00:34:16;23.60;;;4.47;;
79212;SDS011;68639;52.380;9.822;2023-05-24T00:36:41;26.10;;;4.90;;
79212;SDS011;68639;52.380;9.822;2023-05-24T00:39:07;32.90;;;5.97;;
79212;SDS011;68639;52.380;9.822;2023-05-24T00:41:32;19.80;;;4.70;;
79212;SDS011;68639;52.380;9.822;2023-05-24T00:43:57;28.83;;;5.27;;
79212;SDS011;68639;52.380;9.822;2023-05-24T00:46:26;22.93;;;4.67;;
79212;SDS011;68639;52.380;9.822;2023-05-24T00:48:52;29.13;;;5.50;;
79212;SDS011;68639;52.380;9.822;2023-05-24T00:51:17;26.03;;;5.33;;
79212;SDS011;68639;52.380;9.822;2023-05-24T00:53:46;27.53;;;4.83;;
79212;SDS011;68639;52.380;9.822;2023-05-24T00:56:12;25.07;;;5.03;;
79212;SDS011;68639;52.380;9.822;2023-05-24T00:58:37;24.87;;;5.80;;
79212;SDS011;68639;52.380;9.822;2023-05-24T01:01:03;25.47;;;5.23;;
79212;SDS011;68639;52.380;9.822;2023-05-24T01:03:28;24.50;;;4.43;;
79212;SDS011;68639;52.380;9.822;2023-05-24T01:05:57;23.67;;;4.57;;
79212;SDS011;68639;52.380;9.822;2023-05-24T01:11:04;23.90;;;4.87;;
79212;SDS011;68639;52.380;9.822;2023-05-24T01:16:09;21.53;;;4.97;;
79212;SDS011;68639;52.380;9.822;2023-05-24T01:18:38;34.37;;;6.37;;
79212;SDS011;68639;52.380;9.822;2023-05-24T01:21:10;33.30;;;6.27;;
79212;SDS011;68639;52.380;9.822;2023-05-24T01:26:12;26.07;;;5.17;;
79212;SDS011;68639;52.380;9.822;2023-05-24T01:28:39;30.33;;;5.43;;
79212;SDS011;68639;52.380;9.822;2023-05-24T01:31:05;27.57;;;5.77;;
79212;SDS011;68639;52.380;9.822;2023-05-24T01:33:31;23.23;;;5.33;;
79212;SDS011;68639;52.380;9.822;2023-05-24T01:35:56;26.37;;;5.53;;
79212;SDS011;68639;52.380;9.822;2023-05-24T01:38:21;33.80;;;5.27;;
79212;SDS011;68639;52.380;9.822;2023-05-24T01:40:47;26.23;;;4.93;;
79212;SDS011;68639;52.380;9.822;2023-05-24T01:43:22;28.57;;;6.20;;
79212;SDS011;68639;52.380;9.822;2023-05-24T01:48:33;29.13;;;6.00;;
79212;SDS011;68639;52.380;9.822;2023-05-24T01:51:00;25.23;;;5.40;;
79212;SDS011;68639;52.380;9.822;2023-05-24T01:53:31;33.73;;;5.40;;
79212;SDS011;68639;52.380;9.822;2023-05-24T01:55:57;35.87;;;6.60;;
79212;SDS011;68639;52.380;9.822;2023-05-24T01:58:23;33.83;;;5.90;;
79212;SDS011;68639;52.380;9.822;2023-05-24T02:00:50;29.73;;;6.37;;
79212;SDS011;68639;52.380;9.822;2023-05-24T02:03:15;36.97;;;6.53;;
79212;SDS011;68639;52.380;9.822;2023-05-24T02:05:41;31.80;;;6.00;;
79212;SDS011;68639;52.380;9.822;2023-05-24T02:08:08;35.80;;;7.00;;
79212;SDS011;68639;52.380;9.822;2023-05-24T02:10:33;36.43;;;6.83;;
79212;SDS011;68639;52.380;9.822;2023-05-24T02:12:58;37.67;;;7.37;;
79212;SDS011;68639;52.380;9.822;2023-05-24T02:15:24;33.20;;;6.30;;
79212;SDS011;68639;52.380;9.822;2023-05-24T02:17:50;33.23;;;6.47;;
79212;SDS011;68639;52.380;9.822;2023-05-24T02:20:18;39.07;;;6.57;;
79212;SDS011;68639;52.380;9.822;2023-05-24T02:22:46;35.73;;;6.93;;
79212;SDS011;68639;52.380;9.822;2023-05-24T02:25:11;41.30;;;7.23;;
79212;SDS011;68639;52.380;9.822;2023-05-24T02:27:36;30.67;;;6.20;;
79212;SDS011;68639;52.380;9.822;2023-05-24T02:30:02;30.87;;;6.20;;
79212;SDS011;68639;52.380;9.822;2023-05-24T02:32:27;33.70;;;6.73;;
79212;SDS011;68639;52.380;9.822;2023-05-24T02:34:52;35.13;;;7.57;;
79212;SDS011;68639;52.380;9.822;2023-05-24T02:37:18;32.87;;;7.17;;
79212;SDS011;68639;52.380;9.822;2023-05-24T02:39:44;38.10;;;8.13;;
79212;SDS011;68639;52.380;9.822;2023-05-24T02:42:09;37.50;;;7.13;;
79212;SDS011;68639;52.380;9.822;2023-05-24T02:44:35;28.83;;;6.40;;
79212;SDS011;68639;52.380;9.822;2023-05-24T02:47:00;31.20;;;6.57;;
79212;SDS011;68639;52.380;9.822;2023-05-24T02:49:25;36.70;;;5.93;;
79212;SDS011;68639;52.380;9.822;2023-05-24T02:51:51;32.53;;;6.63;;
79212;SDS011;68639;52.380;9.822;2023-05-24T02:54:16;35.13;;;6.50;;
79212;SDS011;68639;52.380;9.822;2023-05-24T02:56:42;28.97;;;6.87;;
79212;SDS011;68639;52.380;9.822;2023-05-24T02:59:07;37.53;;;6.43;;
79212;SDS011;68639;52.380;9.822;2023-05-24T03:01:33;33.63;;;6.87;;
79212;SDS011;68639;52.380;9.822;2023-05-24T03:03:58;29.27;;;6.17;;
79212;SDS011;68639;52.380;9.822;2023-05-24T03:06:23;27.53;;;6.70;;
79212;SDS011;68639;52.380;9.822;2023-05-24T03:08:49;28.27;;;6.93;;
79212;SDS011;68639;52.380;9.822;2023-05-24T03:11:15;36.13;;;6.93;;
79212;SDS011;68639;52.380;9.822;2023-05-24T03:13:40;32.63;;;6.30;;
79212;SDS011;68639;52.380;9.822;2023-05-24T03:16:06;35.43;;;7.30;;
79212;SDS011;68639;52.380;9.822;2023-05-24T03:18:31;28.47;;;7.40;;
79212;SDS011;68639;52.380;9.822;2023-05-24T03:20:57;35.67;;;6.83;;
79212;SDS011;68639;52.380;9.822;2023-05-24T03:23:22;41.70;;;7.60;;
79212;SDS011;68639;52.380;9.822;2023-05-24T03:25:47;38.33;;;7.47;;
79212;SDS011;68639;52.380;9.822;2023-05-24T03:28:12;34.63;;;7.27;;
79212;SDS011;68639;52.380;9.822;2023-05-24T03:30:39;32.77;;;7.27;;
79212;SDS011;68639;52.380;9.822;2023-05-24T03:33:04;42.03;;;8.60;;
79212;SDS011;68639;52.380;9.822;2023-05-24T03:35:29;42.20;;;7.70;;
79212;SDS011;68639;52.380;9.822;2023-05-24T03:37:55;35.83;;;7.87;;
79212;SDS011;68639;52.380;9.822;2023-05-24T03:40:20;35.13;;;7.70;;
79212;SDS011;68639;52.380;9.822;2023-05-24T03:42:45;31.63;;;7.13;;
79212;SDS011;68639;52.380;9.822;2023-05-24T03:45:10;39.07;;;6.70;;
79212;SDS011;68639;52.380;9.822;2023-05-24T03:47:35;34.57;;;6.63;;
79212;SDS011;68639;52.380;9.822;2023-05-24T03:50:01;38.17;;;7.73;;
79212;SDS011;68639;52.380;9.822;2023-05-24T03:52:26;36.97;;;8.70;;
79212;SDS011;68639;52.380;9.822;2023-05-24T03:54:51;35.97;;;8.70;;
79212;SDS011;68639;52.380;9.822;2023-05-24T03:57:16;44.40;;;7.00;;
79212;SDS011;68639;52.380;9.822;2023-05-24T03:59:42;32.97;;;6.73;;
79212;SDS011;68639;52.380;9.822;2023-05-24T04:02:07;44.47;;;7.57;;
79212;SDS011;68639;52.380;9.822;2023-05-24T04:04:32;35.33;;;7.47;;
79212;SDS011;68639;52.380;9.822;2023-05-24T04:06:58;37.87;;;7.33;;
79212;SDS011;68639;52.380;9.822;2023-05-24T04:09:23;40.70;;;8.20;;
79212;SDS011;68639;52.380;9.822;2023-05-24T04:11:48;31.93;;;7.13;;
79212;SDS011;68639;52.380;9.822;2023-05-24T04:14:14;41.80;;;8.43;;
79212;SDS011;68639;52.380;9.822;2023-05-24T04:16:39;37.70;;;7.57;;
79212;SDS011;68639;52.380;9.822;2023-05-24T04:19:05;32.30;;;6.80;;
79212;SDS011;68639;52.380;9.822;2023-05-24T04:21:30;34.23;;;7.03;;
79212;SDS011;68639;52.380;9.822;2023-05-24T04:23:57;35.37;;;6.93;;
79212;SDS011;68639;52.380;9.822;2023-05-24T04:26:24;42.07;;;9.17;;
79212;SDS011;68639;52.380;9.822;2023-05-24T04:28:49;34.00;;;7.30;;
79212;SDS011;68639;52.380;9.822;2023-05-24T04:31:14;38.87;;;8.10;;
79212;SDS011;68639;52.380;9.822;2023-05-24T04:33:40;36.23;;;7.83;;
79212;SDS011;68639;52.380;9.822;2023-05-24T04:36:06;35.53;;;6.90;;
79212;SDS011;68639;52.380;9.822;2023-05-24T04:38:32;42.40;;;8.17;;
79212;SDS011;68639;52.380;9.822;2023-05-24T04:40:58;35.13;;;7.30;;
79212;SDS011;68639;52.380;9.822;2023-05-24T04:43:24;34.63;;;7.90;;
79212;SDS011;68639;52.380;9.822;2023-05-24T04:45:53;38.53;;;6.50;;
79212;SDS011;68639;52.380;9.822;2023-05-24T04:48:19;36.40;;;8.00;;
79212;SDS011;68639;52.380;9.822;2023-05-24T04:50:45;34.23;;;7.10;;
79212;SDS011;68639;52.380;9.822;2023-05-24T04:53:10;36.17;;;7.60;;
79212;SDS011;68639;52.380;9.822;2023-05-24T04:55:36;31.53;;;6.47;;
79212;SDS011;68639;52.380;9.822;2023-05-24T04:58:01;35.23;;;6.90;;
79212;SDS011;68639;52.380;9.822;2023-05-24T05:00:26;35.77;;;7.80;;
79212;SDS011;68639;52.380;9.822;2023-05-24T05:02:52;39.87;;;7.23;;
79212;SDS011;68639;52.380;9.822;2023-05-24T05:05:17;39.10;;;7.60;;
79212;SDS011;68639;52.380;9.822;2023-05-24T05:07:42;31.47;;;7.37;;
79212;SDS011;68639;52.380;9.822;2023-05-24T05:10:07;37.63;;;7.27;;
79212;SDS011;68639;52.380;9.822;2023-05-24T05:12:33;37.63;;;7.47;;
79212;SDS011;68639;52.380;9.822;2023-05-24T05:14:58;41.63;;;8.17;;
79212;SDS011;68639;52.380;9.822;2023-05-24T05:17:23;32.03;;;7.13;;
79212;SDS011;68639;52.380;9.822;2023-05-24T05:19:48;32.90;;;7.37;;
79212;SDS011;68639;52.380;9.822;2023-05-24T05:22:14;38.03;;;7.40;;
79212;SDS011;68639;52.380;9.822;2023-05-24T05:24:40;34.67;;;7.60;;
79212;SDS011;68639;52.380;9.822;2023-05-24T05:27:05;31.90;;;7.23;;
79212;SDS011;68639;52.380;9.822;2023-05-24T05:29:30;32.77;;;7.03;;
79212;SDS011;68639;52.380;9.822;2023-05-24T05:31:56;39.30;;;7.03;;
79212;SDS011;68639;52.380;9.822;2023-05-24T05:34:21;35.20;;;8.50;;
79212;SDS011;68639;52.380;9.822;2023-05-24T05:36:46;35.90;;;7.23;;
79212;SDS011;68639;52.380;9.822;2023-05-24T05:39:11;40.13;;;8.20;;
79212;SDS011;68639;52.380;9.822;2023-05-24T05:41:40;32.90;;;7.33;;
79212;SDS011;68639;52.380;9.822;2023-05-24T05:44:08;32.35;;;6.95;;
79212;SDS011;68639;52.380;9.822;2023-05-24T05:46:33;33.93;;;6.87;;
79212;SDS011;68639;52.380;9.822;2023-05-24T05:48:58;34.77;;;7.27;;
79212;SDS011;68639;52.380;9.822;2023-05-24T05:51:24;31.17;;;7.28;;
79212;SDS011;68639;52.380;9.822;2023-05-24T05:53:49;35.28;;;6.60;;
79212;SDS011;68639;52.380;9.822;2023-05-24T05:56:15;36.65;;;7.15;;
79212;SDS011;68639;52.380;9.822;2023-05-24T05:58:40;36.50;;;7.15;;
79212;SDS011;68639;52.380;9.822;2023-05-24T06:01:05;37.35;;;7.90;;
79212;SDS011;68639;52.380;9.822;2023-05-24T06:03:30;28.00;;;6.40;;
79212;SDS011;68639;52.380;9.822;2023-05-24T06:05:56;35.45;;;7.65;;
79212;SDS011;68639;52.380;9.822;2023-05-24T06:08:21;28.77;;;6.70;;
79212;SDS011;68639;52.380;9.822;2023-05-24T06:10:46;29.70;;;7.60;;
79212;SDS011;68639;52.380;9.822;2023-05-24T06:13:12;29.48;;;6.72;;
79212;SDS011;68639;52.380;9.822;2023-05-24T06:15:37;30.27;;;6.60;;
79212;SDS011;68639;52.380;9.822;2023-05-24T06:18:02;29.58;;;6.80;;
79212;SDS011;68639;52.380;9.822;2023-05-24T06:20:27;30.02;;;6.68;;
79212;SDS011;68639;52.380;9.822;2023-05-24T06:22:53;27.17;;;7.03;;
79212;SDS011;68639;52.380;9.822;2023-05-24T06:25:19;34.83;;;7.68;;
79212;SDS011;68639;52.380;9.822;2023-05-24T06:27:45;32.30;;;7.13;;
79212;SDS011;68639;52.380;9.822;2023-05-24T06:30:10;34.20;;;7.32;;
79212;SDS011;68639;52.380;9.822;2023-05-24T06:32:36;33.03;;;7.22;;
79212;SDS011;68639;52.380;9.822;2023-05-24T06:35:02;36.45;;;7.18;;
79212;SDS011;68639;52.380;9.822;2023-05-24T06:37:27;35.25;;;6.75;;
79212;SDS011;68639;52.380;9.822;2023-05-24T06:39:55;33.22;;;6.55;;
79212;SDS011;68639;52.380;9.822;2023-05-24T06:42:20;31.75;;;6.85;;
79212;SDS011;68639;52.380;9.822;2023-05-24T06:44:45;33.65;;;7.10;;
79212;SDS011;68639;52.380;9.822;2023-05-24T06:47:11;32.67;;;7.07;;
79212;SDS011;68639;52.380;9.822;2023-05-24T06:49:36;32.58;;;7.20;;
79212;SDS011;68639;52.380;9.822;2023-05-24T06:52:01;40.17;;;7.93;;
79212;SDS011;68639;52.380;9.822;2023-05-24T06:54:26;29.55;;;7.28;;
79212;SDS011;68639;52.380;9.822;2023-05-24T06:56:51;36.20;;;7.53;;
79212;SDS011;68639;52.380;9.822;2023-05-24T06:59:17;32.85;;;6.68;;
79212;SDS011;68639;52.380;9.822;2023-05-24T07:01:42;33.88;;;6.65;;
79212;SDS011;68639;52.380;9.822;2023-05-24T07:04:08;38.38;;;7.07;;
79212;SDS011;68639;52.380;9.822;2023-05-24T07:06:34;32.10;;;6.20;;
79212;SDS011;68639;52.380;9.822;2023-05-24T07:08:59;33.75;;;6.97;;
79212;SDS011;68639;52.380;9.822;2023-05-24T07:11:26;30.55;;;6.55;;
79212;SDS011;68639;52.380;9.822;2023-05-24T07:13:51;29.30;;;6.55;;
79212;SDS011;68639;52.380;9.822;2023-05-24T07:16:16;30.83;;;7.07;;
79212;SDS011;68639;52.380;9.822;2023-05-24T07:18:42;25.90;;;6.10;;
79212;SDS011;68639;52.380;9.822;2023-05-24T07:21:07;36.30;;;7.13;;
79212;SDS011;68639;52.380;9.822;2023-05-24T07:23:32;31.42;;;7.13;;
79212;SDS011;68639;52.380;9.822;2023-05-24T07:25:58;30.52;;;6.35;;
79212;SDS011;68639;52.380;9.822;2023-05-24T07:28:23;24.90;;;6.22;;
79212;SDS011;68639;52.380;9.822;2023-05-24T07:30:49;21.88;;;5.82;;
79212;SDS011;68639;52.380;9.822;2023-05-24T07:33:14;24.40;;;5.82;;
79212;SDS011;68639;52.380;9.822;2023-05-24T07:35:40;24.20;;;5.45;;
79212;SDS011;68639;52.380;9.822;2023-05-24T07:38:05;29.00;;;6.47;;
79212;SDS011;68639;52.380;9.822;2023-05-24T07:40:31;32.72;;;5.53;;
79212;SDS011;68639;52.380;9.822;2023-05-24T07:42:56;33.15;;;7.05;;
79212;SDS011;68639;52.380;9.822;2023-05-24T07:45:22;31.02;;;6.53;;
79212;SDS011;68639;52.380;9.822;2023-05-24T07:47:47;30.90;;;6.43;;
79212;SDS011;68639;52.380;9.822;2023-05-24T07:50:12;23.42;;;5.78;;
79212;SDS011;68639;52.380;9.822;2023-05-24T07:52:37;32.72;;;6.90;;
79212;SDS011;68639;52.380;9.822;2023-05-24T07:55:03;30.63;;;6.38;;
79212;SDS011;68639;52.380;9.822;2023-05-24T07:57:29;33.10;;;6.50;;
79212;SDS011;68639;52.380;9.822;2023-05-24T07:59:54;28.90;;;6.32;;
79212;SDS011;68639;52.380;9.822;2023-05-24T08:02:19;29.45;;;6.03;;
79212;SDS011;68639;52.380;9.822;2023-05-24T08:04:45;27.43;;;7.47;;
79212;SDS011;68639;52.380;9.822;2023-05-24T08:07:11;37.03;;;7.77;;
79212;SDS011;68639;52.380;9.822;2023-05-24T08:09:36;33.27;;;7.40;;
79212;SDS011;68639;52.380;9.822;2023-05-24T08:12:05;39.30;;;9.27;;
79212;SDS011;68639;52.380;9.822;2023-05-24T08:14:31;31.80;;;7.93;;
79212;SDS011;68639;52.380;9.822;2023-05-24T08:16:56;31.67;;;7.80;;
79212;SDS011;68639;52.380;9.822;2023-05-24T08:19:22;27.63;;;6.80;;
79212;SDS011;68639;52.380;9.822;2023-05-24T08:21:48;27.93;;;6.43;;
79212;SDS011;68639;52.380;9.822;2023-05-24T08:24:13;31.40;;;6.78;;
79212;SDS011;68639;52.380;9.822;2023-05-24T08:26:38;29.27;;;6.47;;
79212;SDS011;68639;52.380;9.822;2023-05-24T08:29:04;30.65;;;6.88;;
79212;SDS011;68639;52.380;9.822;2023-05-24T08:31:29;28.77;;;6.65;;
79212;SDS011;68639;52.380;9.822;2023-05-24T08:33:54;25.37;;;6.07;;
79212;SDS011;68639;52.380;9.822;2023-05-24T08:36:21;23.58;;;6.28;;
79212;SDS011;68639;52.380;9.822;2023-05-24T08:38:46;27.57;;;7.23;;
79212;SDS011;68639;52.380;9.822;2023-05-24T08:41:12;25.52;;;6.68;;
79212;SDS011;68639;52.380;9.822;2023-05-24T08:43:37;29.55;;;7.13;;
79212;SDS011;68639;52.380;9.822;2023-05-24T08:46:03;26.98;;;7.00;;
79212;SDS011;68639;52.380;9.822;2023-05-24T08:48:29;27.70;;;7.60;;
79212;SDS011;68639;52.380;9.822;2023-05-24T08:50:54;28.48;;;8.07;;
79212;SDS011;68639;52.380;9.822;2023-05-24T08:53:21;32.38;;;7.38;;
79212;SDS011;68639;52.380;9.822;2023-05-24T08:55:47;30.95;;;7.90;;
79212;SDS011;68639;52.380;9.822;2023-05-24T08:58:13;33.07;;;7.90;;
79212;SDS011;68639;52.380;9.822;2023-05-24T09:00:39;26.58;;;8.02;;
79212;SDS011;68639;52.380;9.822;2023-05-24T09:03:05;31.33;;;7.73;;
79212;SDS011;68639;52.380;9.822;2023-05-24T09:05:30;28.75;;;7.43;;
79212;SDS011;68639;52.380;9.822;2023-05-24T09:07:56;31.40;;;7.50;;
79212;SDS011;68639;52.380;9.822;2023-05-24T09:10:23;24.50;;;6.55;;
79212;SDS011;68639;52.380;9.822;2023-05-24T09:12:50;34.20;;;7.68;;
79212;SDS011;68639;52.380;9.822;2023-05-24T09:15:18;34.22;;;7.55;;
79212;SDS011;68639;52.380;9.822;2023-05-24T09:17:43;31.63;;;7.93;;
79212;SDS011;68639;52.380;9.822;2023-05-24T09:20:09;32.92;;;7.82;;
79212;SDS011;68639;52.380;9.822;2023-05-24T09:22:35;32.15;;;7.93;;
79212;SDS011;68639;52.380;9.822;2023-05-24T09:25:03;32.58;;;7.93;;
79212;SDS011;68639;52.380;9.822;2023-05-24T09:27:30;34.22;;;7.15;;
79212;SDS011;68639;52.380;9.822;2023-05-24T09:29:56;27.80;;;6.93;;
79212;SDS011;68639;52.380;9.822;2023-05-24T09:32:21;39.30;;;7.95;;
79212;SDS011;68639;52.380;9.822;2023-05-24T09:34:49;25.55;;;6.95;;
79212;SDS011;68639;52.380;9.822;2023-05-24T09:37:15;30.48;;;8.02;;
79212;SDS011;68639;52.380;9.822;2023-05-24T09:39:42;30.58;;;7.75;;
79212;SDS011;68639;52.380;9.822;2023-05-24T09:42:07;32.70;;;6.95;;
79212;SDS011;68639;52.380;9.822;2023-05-24T09:44:32;31.90;;;7.63;;
79212;SDS011;68639;52.380;9.822;2023-05-24T09:47:01;30.73;;;7.57;;
79212;SDS011;68639;52.380;9.822;2023-05-24T09:49:30;23.40;;;6.72;;
79212;SDS011;68639;52.380;9.822;2023-05-24T09:51:56;27.55;;;7.28;;
79212;SDS011;68639;52.380;9.822;2023-05-24T09:54:22;31.10;;;7.47;;
79212;SDS011;68639;52.380;9.822;2023-05-24T09:56:48;31.88;;;7.15;;
79212;SDS011;68639;52.380;9.822;2023-05-24T09:59:13;31.20;;;7.50;;
79212;SDS011;68639;52.380;9.822;2023-05-24T10:01:39;30.08;;;7.32;;
79212;SDS011;68639;52.380;9.822;2023-05-24T10:04:04;24.08;;;6.80;;
79212;SDS011;68639;52.380;9.822;2023-05-24T10:06:33;27.38;;;7.03;;
79212;SDS011;68639;52.380;9.822;2023-05-24T10:09:01;25.05;;;6.75;;
79212;SDS011;68639;52.380;9.822;2023-05-24T10:11:29;32.10;;;7.43;;
79212;SDS011;68639;52.380;9.822;2023-05-24T10:13:54;24.13;;;7.13;;
79212;SDS011;68639;52.380;9.822;2023-05-24T10:16:20;33.05;;;7.78;;
79212;SDS011;68639;52.380;9.822;2023-05-24T10:18:45;31.77;;;8.30;;
79212;SDS011;68639;52.380;9.822;2023-05-24T10:21:10;27.00;;;8.45;;
79212;SDS011;68639;52.380;9.822;2023-05-24T10:23:36;30.08;;;8.82;;
79212;SDS011;68639;52.380;9.822;2023-05-24T10:26:08;29.20;;;8.52;;
79212;SDS011;68639;52.380;9.822;2023-05-24T10:28:40;33.33;;;9.02;;
79212;SDS011;68639;52.380;9.822;2023-05-24T10:31:11;32.20;;;9.35;;
79212;SDS011;68639;52.380;9.822;2023-05-24T10:33:39;34.08;;;9.20;;
79212;SDS011;68639;52.380;9.822;2023-05-24T10:36:07;35.60;;;9.77;;
79212;SDS011;68639;52.380;9.822;2023-05-24T10:38:33;28.05;;;8.80;;
79212;SDS011;68639;52.380;9.822;2023-05-24T10:41:01;28.95;;;9.15;;
79212;SDS011;68639;52.380;9.822;2023-05-24T10:43:26;30.63;;;8.35;;
79212;SDS011;68639;52.380;9.822;2023-05-24T10:45:51;30.10;;;10.43;;
79212;SDS011;68639;52.380;9.822;2023-05-24T10:50:48;31.40;;;8.90;;
79212;SDS011;68639;52.380;9.822;2023-05-24T10:58:19;34.00;;;9.82;;
79212;SDS011;68639;52.380;9.822;2023-05-24T11:00:45;27.08;;;8.63;;
79212;SDS011;68639;52.380;9.822;2023-05-24T11:03:10;26.88;;;9.07;;
79212;SDS011;68639;52.380;9.822;2023-05-24T11:05:54;32.40;;;9.38;;
79212;SDS011;68639;52.380;9.822;2023-05-24T11:08:32;33.33;;;8.73;;
79212;SDS011;68639;52.380;9.822;2023-05-24T11:13:28;34.08;;;9.20;;
79212;SDS011;68639;52.380;9.822;2023-05-24T11:15:54;33.15;;;10.55;;
79212;SDS011;68639;52.380;9.822;2023-05-24T11:18:23;33.92;;;9.07;;
79212;SDS011;68639;52.380;9.822;2023-05-24T11:20:48;37.67;;;10.13;;
79212;SDS011;68639;52.380;9.822;2023-05-24T11:23:14;33.63;;;10.52;;
79212;SDS011;68639;52.380;9.822;2023-05-24T11:25:39;38.40;;;10.65;;
79212;SDS011;68639;52.380;9.822;2023-05-24T11:28:06;31.45;;;9.90;;
79212;SDS011;68639;52.380;9.822;2023-05-24T11:30:32;33.42;;;10.02;;
79212;SDS011;68639;52.380;9.822;2023-05-24T11:32:57;32.05;;;9.40;;
79212;SDS011;68639;52.380;9.822;2023-05-24T11:35:24;31.63;;;9.18;;
79212;SDS011;68639;52.380;9.822;2023-05-24T11:37:52;35.30;;;8.77;;
79212;SDS011;68639;52.380;9.822;2023-05-24T11:40:17;29.55;;;9.68;;
79212;SDS011;68639;52.380;9.822;2023-05-24T11:42:44;29.58;;;9.40;;
79212;SDS011;68639;52.380;9.822;2023-05-24T11:45:10;26.23;;;8.98;;
79212;SDS011;68639;52.380;9.822;2023-05-24T11:47:37;34.78;;;9.05;;
79212;SDS011;68639;52.380;9.822;2023-05-24T11:50:02;39.58;;;9.45;;
79212;SDS011;68639;52.380;9.822;2023-05-24T11:52:29;40.70;;;9.98;;
79212;SDS011;68639;52.380;9.822;2023-05-24T11:54:54;34.45;;;10.00;;
79212;SDS011;68639;52.380;9.822;2023-05-24T11:57:21;31.42;;;10.10;;
79212;SDS011;68639;52.380;9.822;2023-05-24T11:59:48;28.08;;;9.80;;
79212;SDS011;68639;52.380;9.822;2023-05-24T12:02:14;32.00;;;9.00;;
79212;SDS011;68639;52.380;9.822;2023-05-24T12:04:39;37.63;;;10.05;;
79212;SDS011;68639;52.380;9.822;2023-05-24T12:07:09;29.25;;;8.73;;
79212;SDS011;68639;52.380;9.822;2023-05-24T12:09:34;35.30;;;10.27;;
79212;SDS011;68639;52.380;9.822;2023-05-24T12:12:00;29.35;;;9.68;;
79212;SDS011;68639;52.380;9.822;2023-05-24T12:14:26;33.65;;;9.38;;
79212;SDS011;68639;52.380;9.822;2023-05-24T12:16:53;29.45;;;9.40;;
79212;SDS011;68639;52.380;9.822;2023-05-24T12:19:18;34.53;;;10.10;;
79212;SDS011;68639;52.380;9.822;2023-05-24T12:21:44;31.52;;;9.60;;
79212;SDS011;68639;52.380;9.822;2023-05-24T12:24:10;35.03;;;9.77;;
79212;SDS011;68639;52.380;9.822;2023-05-24T12:26:39;35.28;;;9.55;;
79212;SDS011;68639;52.380;9.822;2023-05-24T12:29:05;28.60;;;9.82;;
79212;SDS011;68639;52.380;9.822;2023-05-24T12:31:30;29.17;;;9.60;;
79212;SDS011;68639;52.380;9.822;2023-05-24T12:33:56;34.92;;;8.88;;
79212;SDS011;68639;52.380;9.822;2023-05-24T12:36:21;32.58;;;8.93;;
79212;SDS011;68639;52.380;9.822;2023-05-24T12:38:47;35.67;;;10.07;;
79212;SDS011;68639;52.380;9.822;2023-05-24T12:41:12;28.83;;;8.88;;
79212;SDS011;68639;52.380;9.822;2023-05-24T12:43:37;33.80;;;8.45;;
79212;SDS011;68639;52.380;9.822;2023-05-24T12:46:03;29.05;;;8.57;;
79212;SDS011;68639;52.380;9.822;2023-05-24T12:48:28;26.50;;;7.95;;
79212;SDS011;68639;52.380;9.822;2023-05-24T12:50:53;29.88;;;8.40;;
79212;SDS011;68639;52.380;9.822;2023-05-24T12:53:19;24.75;;;8.63;;
79212;SDS011;68639;52.380;9.822;2023-05-24T12:55:47;22.90;;;7.30;;
79212;SDS011;68639;52.380;9.822;2023-05-24T12:58:14;25.05;;;7.90;;
79212;SDS011;68639;52.380;9.822;2023-05-24T13:00:41;23.73;;;6.88;;
79212;SDS011;68639;52.380;9.822;2023-05-24T13:03:08;23.23;;;6.82;;
79212;SDS011;68639;52.380;9.822;2023-05-24T13:05:33;23.02;;;7.38;;
79212;SDS011;68639;52.380;9.822;2023-05-24T13:07:59;22.83;;;7.22;;
79212;SDS011;68639;52.380;9.822;2023-05-24T13:10:25;24.38;;;7.07;;
79212;SDS011;68639;52.380;9.822;2023-05-24T13:12:51;19.25;;;6.70;;
79212;SDS011;68639;52.380;9.822;2023-05-24T13:15:16;20.77;;;6.60;;
79212;SDS011;68639;52.380;9.822;2023-05-24T13:17:43;19.83;;;5.82;;
79212;SDS011;68639;52.380;9.822;2023-05-24T13:20:09;21.58;;;6.75;;
79212;SDS011;68639;52.380;9.822;2023-05-24T13:22:36;21.85;;;6.15;;
79212;SDS011;68639;52.380;9.822;2023-05-24T13:25:02;21.50;;;6.05;;
79212;SDS011;68639;52.380;9.822;2023-05-24T13:27:27;19.70;;;6.45;;
79212;SDS011;68639;52.380;9.822;2023-05-24T13:29:53;19.17;;;5.90;;
79212;SDS011;68639;52.380;9.822;2023-05-24T13:32:18;24.33;;;6.13;;
79212;SDS011;68639;52.380;9.822;2023-05-24T13:34:43;16.63;;;6.05;;
79212;SDS011;68639;52.380;9.822;2023-05-24T13:37:08;16.58;;;5.65;;
79212;SDS011;68639;52.380;9.822;2023-05-24T13:39:34;17.27;;;5.70;;
79212;SDS011;68639;52.380;9.822;2023-05-24T13:42:00;12.43;;;5.57;;
79212;SDS011;68639;52.380;9.822;2023-05-24T13:44:25;15.45;;;5.90;;
79212;SDS011;68639;52.380;9.822;2023-05-24T13:46:50;19.58;;;5.63;;
79212;SDS011;68639;52.380;9.822;2023-05-24T13:49:16;15.70;;;5.75;;
79212;SDS011;68639;52.380;9.822;2023-05-24T13:51:41;19.40;;;5.28;;
79212;SDS011;68639;52.380;9.822;2023-05-24T13:54:06;15.25;;;5.18;;
79212;SDS011;68639;52.380;9.822;2023-05-24T13:56:32;14.02;;;4.72;;
79212;SDS011;68639;52.380;9.822;2023-05-24T13:58:58;15.88;;;5.13;;
79212;SDS011;68639;52.380;9.822;2023-05-24T14:01:24;19.65;;;5.13;;
79212;SDS011;68639;52.380;9.822;2023-05-24T14:03:49;16.38;;;5.07;;
79212;SDS011;68639;52.380;9.822;2023-05-24T14:06:14;15.38;;;5.05;;
79212;SDS011;68639;52.380;9.822;2023-05-24T14:08:39;12.85;;;5.00;;
79212;SDS011;68639;52.380;9.822;2023-05-24T14:11:05;16.88;;;5.82;;
79212;SDS011;68639;52.380;9.822;2023-05-24T14:13:30;14.80;;;5.30;;
79212;SDS011;68639;52.380;9.822;2023-05-24T14:15:55;12.88;;;4.60;;
79212;SDS011;68639;52.380;9.822;2023-05-24T14:18:21;16.02;;;5.70;;
79212;SDS011;68639;52.380;9.822;2023-05-24T14:20:46;16.65;;;5.72;;
79212;SDS011;68639;52.380;9.822;2023-05-24T14:23:11;15.35;;;5.43;;
79212;SDS011;68639;52.380;9.822;2023-05-24T14:25:36;18.55;;;5.30;;
79212;SDS011;68639;52.380;9.822;2023-05-24T14:28:02;17.05;;;5.57;;
79212;SDS011;68639;52.380;9.822;2023-05-24T14:30:32;15.68;;;5.72;;
79212;SDS011;68639;52.380;9.822;2023-05-24T14:32:57;15.05;;;5.38;;
79212;SDS011;68639;52.380;9.822;2023-05-24T14:35:24;18.00;;;5.47;;
79212;SDS011;68639;52.380;9.822;2023-05-24T14:37:50;21.27;;;6.30;;
79212;SDS011;68639;52.380;9.822;2023-05-24T14:40:15;14.32;;;5.55;;
79212;SDS011;68639;52.380;9.822;2023-05-24T14:42:40;19.85;;;6.10;;
79212;SDS011;68639;52.380;9.822;2023-05-24T14:45:06;20.70;;;5.80;;